Startpagina
METAR-TAF:

METAR-TAF

Vliegvelden :

Peking, China

Internationale Luchthaven van Peking

breedte: 39-56N, lengte: 116-17E, hoogte: 55 m

Actueel weer

Dit bericht is 39 minuten geleden gemaakt, om 06:30 UTC
Wind 4 kt uit variabele richting
Temperatuur 27°C
Vochtigheid 48%
Druk 1005 hPa
Zicht 10 km of meer
geen wolken onder 1500 m en geen cumulonimbus

METAR: ZBAA 300630Z VRB02MPS CAVOK 27/15 Q1005 NOSIG

Tijdstip: 15:09 (07:09 UTC)

Verwachting

Dit bericht is 3 uur en het 49 minuten geleden gemaakt, om 03:20 UTC
Verwachting geldig van 30 om 06 UTC tot 31 om 06 UTC
Wind 8 kt uit het zuiden
Zicht 10 km of meer
geen wolken onder 1500 m en geen cumulonimbus

TAF: ZBAA 300320Z 3006/3106 18004MPS CAVOK TX25/3007Z TN18/3021Z

Waarnemingen en weersverwachtingen van meer dan 4000 vliegvelden (METAR en TAF).

De beschikbare stations zijn de gele en rode punten op de kaart.

Ga met uw muis naar het station om de naam te zien.

Klik dan om waarnemingen en weersverwachtingen te zien.

kaart wijzigen: klik op de groene knoppen met een zwart kruis om in te zoomen, op de groene knop met een streepje om uit te zoomen of op de groene pijlen voor aangrenzende kaarten.


METAR-TAF: